createdAt,value
2022-12-08T00:02:06.667Z,89.68
2022-12-08T00:04:54.942Z,89.74
2022-12-08T00:07:40.540Z,89.69
2022-12-08T00:10:46.501Z,89.63
2022-12-08T00:13:00.295Z,89.46
2022-12-08T00:15:29.832Z,89.44
2022-12-08T00:17:58.051Z,89.44
2022-12-08T00:20:26.288Z,89.44
2022-12-08T00:22:54.774Z,89.35
2022-12-08T00:25:27.709Z,89.43
2022-12-08T00:27:56.029Z,89.15
2022-12-08T00:30:24.342Z,88.80
2022-12-08T00:32:54.098Z,88.68
2022-12-08T00:35:22.542Z,88.42
2022-12-08T00:37:50.792Z,88.32
2022-12-08T00:40:19.098Z,88.22
2022-12-08T00:42:47.318Z,88.23
2022-12-08T00:45:15.702Z,88.41
2022-12-08T00:47:43.986Z,88.31
2022-12-08T00:50:13.850Z,88.25
2022-12-08T00:52:42.196Z,88.24
2022-12-08T00:55:10.734Z,88.32
2022-12-08T00:57:38.896Z,88.45
2022-12-08T01:00:08.679Z,88.60
2022-12-08T01:02:36.944Z,88.53
2022-12-08T01:05:05.881Z,88.66
2022-12-08T01:07:35.593Z,88.76
2022-12-08T01:10:05.191Z,88.70
2022-12-08T01:12:33.694Z,88.86
2022-12-08T01:15:02.736Z,88.97
2022-12-08T01:17:32.315Z,89.12
2022-12-08T01:20:02.545Z,89.21
2022-12-08T01:22:31.128Z,89.25
2022-12-08T01:25:00.854Z,89.08
2022-12-08T01:27:29.256Z,89.05
2022-12-08T01:29:57.524Z,89.02
2022-12-08T01:32:25.898Z,89.02
2022-12-08T01:34:54.144Z,89.11
2022-12-08T01:37:22.375Z,89.19
2022-12-08T01:39:50.626Z,89.26
2022-12-08T01:42:24.231Z,89.32
2022-12-08T01:45:01.416Z,89.35
2022-12-08T01:47:37.429Z,89.38
2022-12-08T01:50:09.551Z,89.38
2022-12-08T01:52:41.908Z,89.39
2022-12-08T01:55:19.080Z,89.38
2022-12-08T01:57:51.957Z,89.57
2022-12-08T02:00:22.751Z,89.72
2022-12-08T02:02:59.615Z,89.77
2022-12-08T02:05:33.150Z,89.81
2022-12-08T02:08:04.483Z,89.70
2022-12-08T02:10:36.626Z,89.47
2022-12-08T02:13:10.549Z,89.53
2022-12-08T02:15:50.391Z,89.61
2022-12-08T02:18:37.302Z,89.54
2022-12-08T02:21:12.520Z,89.54
2022-12-08T02:23:52.805Z,89.59
2022-12-08T02:27:00.428Z,89.84
2022-12-08T02:29:50.664Z,89.80
2022-12-08T02:32:43.435Z,89.94
2022-12-08T02:35:15.652Z,90.01
2022-12-08T02:37:57.513Z,90.04
2022-12-08T02:40:30.857Z,90.06
2022-12-08T02:43:04.110Z,89.97
2022-12-08T02:45:35.996Z,90.02
2022-12-08T02:48:06.019Z,89.90
2022-12-08T02:50:35.730Z,89.97
2022-12-08T02:55:41.594Z,89.90
2022-12-08T02:58:49.610Z,89.89
2022-12-08T03:01:33.401Z,89.66
2022-12-08T03:04:07.412Z,89.36
2022-12-08T03:06:46.606Z,89.28
2022-12-08T03:09:22.832Z,89.28
2022-12-08T03:11:57.820Z,89.25
2022-12-08T03:14:27.090Z,89.02
2022-12-08T03:17:00.703Z,88.70
2022-12-08T03:19:33.909Z,88.67
2022-12-08T03:22:06.020Z,88.66
2022-12-08T03:24:37.825Z,88.57
2022-12-08T03:27:09.211Z,88.45
2022-12-08T03:29:39.110Z,88.33
2022-12-08T03:32:16.476Z,88.08
2022-12-08T03:34:48.235Z,88.02
2022-12-08T03:37:22.110Z,87.86
2022-12-08T03:39:52.776Z,88.01
2022-12-08T03:42:23.743Z,88.22
2022-12-08T03:44:52.103Z,88.06
2022-12-08T03:47:20.364Z,87.98
2022-12-08T03:49:48.697Z,87.70
2022-12-08T03:52:17.048Z,87.44
2022-12-08T03:54:46.860Z,87.46
2022-12-08T03:57:15.579Z,87.43
2022-12-08T03:59:43.957Z,87.19
2022-12-08T04:02:12.350Z,87.37
2022-12-08T04:04:40.783Z,87.26
2022-12-08T04:07:09.035Z,87.06
2022-12-08T04:09:37.275Z,86.72
2022-12-08T04:12:07.440Z,86.45
2022-12-08T04:14:35.698Z,86.54
2022-12-08T04:17:04.203Z,86.70
2022-12-08T04:19:32.424Z,86.90
2022-12-08T04:22:00.656Z,87.01
2022-12-08T04:24:29.186Z,86.86
2022-12-08T04:26:57.480Z,86.44
2022-12-08T04:29:27.117Z,86.15
2022-12-08T04:31:55.417Z,86.29
2022-12-08T04:34:23.897Z,86.24
2022-12-08T04:36:52.131Z,86.19
2022-12-08T04:39:20.381Z,85.67
2022-12-08T04:41:48.662Z,85.71
2022-12-08T04:44:16.865Z,85.82
2022-12-08T04:46:47.548Z,85.61
2022-12-08T04:49:15.766Z,85.37
2022-12-08T04:51:44.141Z,85.35
2022-12-08T04:54:12.442Z,85.34
2022-12-08T04:56:40.807Z,85.38
2022-12-08T04:59:09.473Z,85.26
2022-12-08T05:01:37.830Z,85.28
2022-12-08T05:04:07.568Z,85.33
2022-12-08T05:06:35.882Z,85.18
2022-12-08T05:09:04.142Z,85.19
2022-12-08T05:11:32.518Z,85.44
2022-12-08T05:14:00.834Z,85.60
2022-12-08T05:16:29.251Z,85.60
2022-12-08T05:18:57.662Z,85.55
2022-12-08T05:21:27.365Z,85.60
2022-12-08T05:23:55.728Z,85.22
2022-12-08T05:26:24.028Z,85.29
2022-12-08T05:28:52.421Z,85.36
2022-12-08T05:31:20.825Z,85.22
2022-12-08T05:33:51.000Z,85.22
2022-12-08T05:36:19.790Z,85.39
2022-12-08T05:38:49.465Z,85.13
2022-12-08T05:41:19.739Z,84.97
2022-12-08T05:43:48.682Z,84.87
2022-12-08T05:46:18.121Z,85.02
2022-12-08T05:48:46.613Z,85.06
2022-12-08T05:51:19.778Z,85.26
2022-12-08T05:53:51.001Z,85.21
2022-12-08T05:56:20.362Z,85.56
2022-12-08T05:58:49.236Z,85.41
2022-12-08T06:01:22.651Z,85.35
2022-12-08T06:03:51.212Z,85.09
2022-12-08T06:06:19.840Z,85.19
2022-12-08T06:08:49.645Z,85.44
2022-12-08T06:11:22.689Z,85.51
2022-12-08T06:13:51.700Z,85.69
2022-12-08T06:16:20.540Z,85.76
2022-12-08T06:18:48.961Z,85.92
2022-12-08T06:21:18.264Z,86.23
2022-12-08T06:23:51.037Z,86.05
2022-12-08T06:26:19.588Z,86.02
2022-12-08T06:28:48.217Z,86.02
2022-12-08T06:31:19.493Z,86.08
2022-12-08T06:33:48.307Z,85.87
2022-12-08T06:36:18.319Z,85.73
2022-12-08T06:38:46.990Z,85.83
2022-12-08T06:41:16.938Z,85.92
2022-12-08T06:43:48.800Z,85.82
2022-12-08T06:46:20.947Z,85.71
2022-12-08T06:48:50.756Z,85.73
2022-12-08T06:51:21.019Z,85.67
2022-12-08T06:53:49.416Z,86.00
2022-12-08T06:56:20.559Z,85.95
2022-12-08T06:58:52.400Z,85.95
2022-12-08T07:01:21.488Z,85.98
2022-12-08T07:03:49.975Z,85.87
2022-12-08T07:06:21.962Z,85.61
2022-12-08T07:08:50.157Z,85.45
2022-12-08T07:11:22.284Z,85.25
2022-12-08T07:13:51.573Z,85.42
2022-12-08T07:16:20.031Z,85.59
2022-12-08T07:18:48.302Z,85.64
2022-12-08T07:21:17.565Z,85.59
2022-12-08T07:23:50.217Z,85.38
2022-12-08T07:26:23.725Z,85.03
2022-12-08T07:28:51.974Z,84.74
2022-12-08T07:31:22.164Z,84.93
2022-12-08T07:33:50.762Z,84.90
2022-12-08T07:36:19.023Z,84.41
2022-12-08T07:38:47.774Z,84.35
2022-12-08T07:41:16.829Z,84.19
2022-12-08T07:43:46.794Z,83.85
2022-12-08T07:46:16.297Z,83.65
2022-12-08T07:48:46.646Z,83.58
2022-12-08T07:51:18.999Z,83.72
2022-12-08T07:53:53.782Z,83.74
2022-12-08T07:56:23.589Z,83.77
2022-12-08T07:58:53.218Z,83.87
2022-12-08T08:01:27.032Z,83.73
2022-12-08T08:03:57.339Z,83.70
2022-12-08T08:06:25.829Z,83.65
2022-12-08T08:08:54.158Z,83.76
2022-12-08T08:11:22.922Z,83.49
2022-12-08T08:13:52.935Z,83.23
2022-12-08T08:16:21.897Z,83.33
2022-12-08T08:18:52.791Z,83.34
2022-12-08T08:21:44.905Z,83.36
2022-12-08T08:24:10.554Z,83.10
2022-12-08T08:26:39.232Z,83.05
2022-12-08T08:29:09.103Z,82.74
2022-12-08T08:31:37.343Z,82.49
2022-12-08T08:34:06.494Z,82.63
2022-12-08T08:36:34.937Z,82.40
2022-12-08T08:39:03.428Z,82.56
2022-12-08T08:41:32.116Z,82.28
2022-12-08T08:44:00.458Z,82.27
2022-12-08T08:46:30.232Z,82.02
2022-12-08T08:48:58.872Z,81.82
2022-12-08T08:51:27.248Z,81.97
2022-12-08T08:53:55.572Z,82.13
2022-12-08T08:56:24.277Z,82.41
2022-12-08T08:58:54.441Z,82.41
2022-12-08T09:01:24.858Z,82.58
2022-12-08T09:03:55.259Z,82.71
2022-12-08T09:06:25.416Z,82.71
2022-12-08T09:08:53.695Z,82.51
2022-12-08T09:11:23.477Z,82.62
2022-12-08T09:13:54.579Z,82.75
2022-12-08T09:16:23.502Z,82.60
2022-12-08T09:18:52.332Z,82.62
2022-12-08T09:21:25.867Z,82.28
2022-12-08T09:23:57.202Z,82.30
2022-12-08T09:26:26.595Z,81.91
2022-12-08T09:28:56.102Z,81.47
2022-12-08T09:31:25.423Z,81.09
2022-12-08T09:33:53.817Z,81.16
2022-12-08T09:36:23.903Z,80.88
2022-12-08T09:38:53.813Z,80.91
2022-12-08T09:41:37.483Z,80.59
2022-12-08T09:44:57.347Z,80.17
2022-12-08T09:47:35.249Z,79.75
2022-12-08T09:50:08.436Z,79.73
2022-12-08T09:52:43.166Z,79.76
2022-12-08T09:55:20.991Z,79.48
2022-12-08T09:58:01.782Z,79.36
2022-12-08T10:00:33.910Z,79.24
2022-12-08T10:03:02.261Z,79.66
2022-12-08T10:05:41.099Z,79.33
2022-12-08T10:08:20.048Z,79.69
2022-12-08T10:10:57.978Z,79.14
2022-12-08T10:13:34.493Z,79.84
2022-12-08T10:16:21.152Z,78.89
2022-12-08T10:18:57.711Z,79.30
2022-12-08T10:21:30.033Z,79.21
2022-12-08T10:24:06.582Z,78.59
2022-12-08T10:26:35.668Z,79.06
2022-12-08T10:29:16.859Z,79.11
2022-12-08T10:31:50.159Z,79.12
2022-12-08T10:34:25.352Z,79.22
2022-12-08T10:36:56.128Z,79.40
2022-12-08T10:39:37.394Z,78.45
2022-12-08T10:42:18.903Z,78.84
2022-12-08T10:44:59.408Z,78.88
2022-12-08T10:47:29.676Z,79.34
2022-12-08T10:50:19.276Z,79.14
2022-12-08T10:52:54.988Z,78.57
2022-12-08T10:55:25.218Z,78.81
2022-12-08T10:57:53.753Z,79.07
2022-12-08T11:00:25.123Z,79.80
2022-12-08T11:02:57.328Z,79.66
2022-12-08T11:05:29.625Z,79.04
2022-12-08T11:07:58.995Z,79.24
2022-12-08T11:10:38.419Z,79.53
2022-12-08T11:13:14.409Z,79.30
2022-12-08T11:15:42.820Z,79.27
2022-12-08T11:18:23.774Z,79.62
2022-12-08T11:21:00.415Z,79.08
2022-12-08T11:23:30.493Z,79.83
2022-12-08T11:26:08.526Z,79.45
2022-12-08T11:28:37.304Z,79.53
2022-12-08T11:31:21.861Z,79.74
2022-12-08T11:33:52.370Z,79.47
2022-12-08T11:36:23.387Z,80.44
2022-12-08T11:38:54.886Z,79.28
2022-12-08T11:41:29.856Z,78.87
2022-12-08T11:44:04.983Z,79.19
2022-12-08T11:46:37.821Z,78.48
2022-12-08T11:49:11.909Z,79.82
2022-12-08T11:51:45.066Z,79.95
2022-12-08T11:54:20.376Z,78.59
2022-12-08T11:56:52.701Z,80.18
2022-12-08T11:59:28.806Z,79.18
2022-12-08T12:01:58.564Z,78.71
2022-12-08T12:04:34.489Z,78.62
2022-12-08T12:07:28.888Z,79.33
2022-12-08T12:10:18.667Z,78.85
2022-12-08T12:13:00.533Z,79.34
2022-12-08T12:16:05.648Z,79.07
2022-12-08T12:18:40.296Z,79.62
2022-12-08T12:21:16.469Z,79.74
2022-12-08T12:23:48.682Z,80.12
2022-12-08T12:26:22.542Z,80.59
2022-12-08T12:28:56.479Z,80.81
2022-12-08T12:31:27.783Z,81.06
2022-12-08T12:34:06.512Z,81.48
2022-12-08T12:36:50.408Z,82.12
2022-12-08T12:39:22.439Z,82.57
2022-12-08T12:41:55.064Z,82.76
2022-12-08T12:44:40.903Z,83.20
2022-12-08T12:47:35.671Z,83.56
2022-12-08T12:50:09.471Z,83.83
2022-12-08T12:52:46.080Z,83.79
2022-12-08T12:55:55.901Z,83.86
2022-12-08T12:58:38.011Z,84.20
2022-12-08T13:01:44.477Z,84.56
2022-12-08T13:04:14.393Z,84.45
2022-12-08T13:06:45.591Z,84.87
2022-12-08T13:09:25.075Z,84.78
2022-12-08T13:11:58.696Z,85.02
2022-12-08T13:14:36.251Z,85.05
2022-12-08T13:17:11.037Z,84.97
2022-12-08T13:19:41.968Z,85.13
2022-12-08T13:22:49.260Z,85.47
2022-12-08T13:25:49.851Z,84.65
2022-12-08T13:28:22.051Z,83.98
2022-12-08T13:30:51.228Z,84.10
2022-12-08T13:33:24.576Z,84.19
2022-12-08T13:36:03.218Z,84.21
2022-12-08T13:38:35.589Z,84.35
2022-12-08T13:41:10.221Z,84.81
2022-12-08T13:44:10.232Z,84.69
2022-12-08T13:50:55.697Z,84.01
2022-12-08T13:56:51.341Z,83.59
2022-12-08T13:58:21.798Z,83.52
2022-12-08T14:01:07.172Z,83.85
2022-12-08T14:04:30.600Z,83.78
2022-12-08T14:06:46.089Z,83.76
2022-12-08T14:09:21.202Z,83.57
2022-12-08T14:11:54.001Z,83.53
2022-12-08T14:15:00.594Z,82.90
2022-12-08T14:17:18.910Z,83.05
2022-12-08T14:19:55.758Z,83.04
2022-12-08T14:22:24.786Z,82.72
2022-12-08T14:24:55.861Z,82.93
2022-12-08T14:27:26.752Z,82.84
2022-12-08T14:29:57.211Z,83.20
2022-12-08T14:32:30.209Z,82.90
2022-12-08T14:35:02.402Z,82.84
2022-12-08T14:37:34.296Z,82.76
2022-12-08T14:40:08.604Z,83.04
2022-12-08T14:42:45.538Z,83.61
2022-12-08T14:45:16.439Z,83.46
2022-12-08T14:47:45.747Z,83.43
2022-12-08T14:50:40.777Z,83.27
2022-12-08T14:53:17.610Z,82.94
2022-12-08T14:55:49.057Z,83.11
2022-12-08T14:58:22.115Z,83.66
2022-12-08T15:00:58.421Z,83.61
2022-12-08T15:03:30.141Z,83.46
2022-12-08T15:06:02.420Z,83.66
2022-12-08T15:08:32.287Z,83.80
2022-12-08T15:11:31.653Z,83.87
2022-12-08T15:14:00.147Z,83.90
2022-12-08T15:16:32.572Z,84.39
2022-12-08T15:19:16.739Z,84.38
2022-12-08T15:21:53.231Z,84.32
2022-12-08T15:24:24.878Z,84.35
2022-12-08T15:26:55.210Z,84.39
2022-12-08T15:29:25.123Z,84.47
2022-12-08T15:31:55.652Z,84.48
2022-12-08T15:34:24.259Z,84.83
2022-12-08T15:36:54.370Z,84.35
2022-12-08T15:39:31.204Z,83.98
2022-12-08T15:42:02.349Z,84.12
2022-12-08T15:44:32.850Z,84.32
2022-12-08T15:47:01.820Z,84.40
2022-12-08T15:49:30.329Z,84.40
2022-12-08T15:52:10.578Z,84.61
2022-12-08T15:54:40.864Z,84.78
2022-12-08T15:57:35.910Z,84.92
2022-12-08T16:04:08.891Z,84.66
2022-12-08T16:09:12.173Z,84.81
2022-12-08T16:12:08.138Z,85.03
2022-12-08T16:17:28.719Z,85.38
2022-12-08T16:19:57.081Z,85.52
2022-12-08T16:22:54.143Z,85.61
2022-12-08T16:25:20.220Z,86.02
2022-12-08T16:30:40.007Z,86.00
2022-12-08T16:33:08.426Z,85.81
2022-12-08T16:35:36.736Z,85.83
2022-12-08T16:38:05.428Z,85.93
2022-12-08T16:40:53.910Z,85.98
2022-12-08T16:43:21.223Z,86.13
2022-12-08T16:45:51.048Z,86.42
2022-12-08T16:48:25.020Z,86.45
2022-12-08T16:53:49.937Z,86.66
2022-12-08T16:56:19.146Z,86.89
2022-12-08T16:58:47.895Z,86.91
2022-12-08T17:01:19.905Z,87.07
2022-12-08T17:04:14.319Z,86.96
2022-12-08T17:06:37.441Z,87.14
2022-12-08T17:09:07.511Z,87.06
2022-12-08T17:11:42.624Z,86.77
2022-12-08T17:14:12.413Z,86.78
2022-12-08T17:16:42.428Z,87.28
2022-12-08T17:19:11.263Z,87.35
2022-12-08T17:21:39.729Z,87.31
2022-12-08T17:24:08.464Z,87.50
2022-12-08T17:26:37.139Z,87.38
2022-12-08T17:29:06.840Z,87.24
2022-12-08T17:31:36.848Z,87.14
2022-12-08T17:34:10.408Z,87.03
2022-12-08T17:36:40.207Z,87.10
2022-12-08T17:39:13.432Z,87.38
2022-12-08T17:41:46.380Z,87.35
2022-12-08T17:44:17.028Z,87.20
2022-12-08T17:46:52.111Z,87.20
2022-12-08T17:49:25.315Z,86.96
2022-12-08T17:51:54.999Z,86.83
2022-12-08T17:54:23.605Z,86.67
2022-12-08T17:56:52.332Z,86.55
2022-12-08T17:59:20.773Z,86.41
2022-12-08T18:01:49.220Z,86.23
2022-12-08T18:04:17.502Z,86.32
2022-12-08T18:06:47.434Z,86.52
2022-12-08T18:09:16.417Z,86.35
2022-12-08T18:11:46.287Z,86.60
2022-12-08T18:14:15.454Z,86.26
2022-12-08T18:16:46.266Z,85.96
2022-12-08T18:19:15.516Z,85.53
2022-12-08T18:21:44.456Z,85.46
2022-12-08T18:24:18.978Z,85.47
2022-12-08T18:26:47.612Z,85.32
2022-12-08T18:29:16.213Z,85.30
2022-12-08T18:31:44.835Z,85.39
2022-12-08T18:34:13.290Z,85.70
2022-12-08T18:36:41.655Z,85.85
2022-12-08T18:39:24.154Z,86.13
2022-12-08T18:41:53.178Z,86.61
2022-12-08T18:44:21.723Z,86.96
2022-12-08T18:46:50.127Z,87.16
2022-12-08T18:49:20.155Z,87.38
2022-12-08T18:51:48.947Z,87.47
2022-12-08T18:54:17.852Z,87.52
2022-12-08T18:56:47.845Z,87.87
2022-12-08T18:59:16.380Z,87.74
2022-12-08T19:01:45.101Z,87.63
2022-12-08T19:04:28.531Z,87.64
2022-12-08T19:06:58.122Z,87.67
2022-12-08T19:09:29.084Z,87.93
2022-12-08T19:11:59.022Z,88.11
2022-12-08T19:14:30.448Z,88.40
2022-12-08T19:16:59.411Z,88.62
2022-12-08T19:19:31.827Z,88.52
2022-12-08T19:22:00.103Z,88.36
2022-12-08T19:24:29.209Z,88.39
2022-12-08T19:26:58.994Z,88.43
2022-12-08T19:29:27.207Z,88.49
2022-12-08T19:31:55.864Z,88.55
2022-12-08T19:34:24.493Z,88.64
2022-12-08T19:36:53.016Z,88.62
2022-12-08T19:39:41.083Z,88.83
2022-12-08T19:42:34.228Z,88.97
2022-12-08T19:45:06.993Z,89.15
2022-12-08T19:47:35.344Z,89.30
2022-12-08T19:50:20.825Z,89.47
2022-12-08T19:52:49.233Z,89.51
2022-12-08T19:55:17.836Z,89.83
2022-12-08T19:57:47.735Z,89.97
2022-12-08T20:00:17.900Z,90.06
2022-12-08T20:02:46.954Z,90.10
2022-12-08T20:05:15.570Z,90.06
2022-12-08T20:07:44.398Z,90.03
2022-12-08T20:10:17.859Z,89.87
2022-12-08T20:12:47.649Z,89.66
2022-12-08T20:15:16.106Z,89.76
2022-12-08T20:17:44.830Z,89.89
2022-12-08T20:20:15.059Z,89.97
2022-12-08T20:22:45.263Z,89.83
2022-12-08T20:25:13.794Z,89.96
2022-12-08T20:27:42.827Z,89.70
2022-12-08T20:30:17.032Z,89.48
2022-12-08T20:32:46.176Z,89.12
2022-12-08T20:35:15.473Z,88.99
2022-12-08T20:37:43.981Z,88.85
2022-12-08T20:40:12.953Z,88.42
2022-12-08T20:42:41.437Z,88.22
2022-12-08T20:45:10.686Z,87.99
2022-12-08T20:47:40.493Z,87.57
2022-12-08T20:50:10.412Z,87.66
2022-12-08T20:52:39.295Z,87.38
2022-12-08T20:55:09.026Z,87.45
2022-12-08T20:57:37.661Z,87.52
2022-12-08T21:00:08.879Z,87.49
2022-12-08T21:02:45.090Z,87.61
2022-12-08T21:05:17.810Z,87.58
2022-12-08T21:07:46.430Z,87.62
2022-12-08T21:10:15.265Z,87.64
2022-12-08T21:12:43.632Z,87.41
2022-12-08T21:15:13.378Z,87.63
2022-12-08T21:17:42.259Z,87.52
2022-12-08T21:20:11.820Z,87.22
2022-12-08T21:22:42.303Z,86.92
2022-12-08T21:25:10.993Z,86.69
2022-12-08T21:27:40.033Z,86.41
2022-12-08T21:30:11.241Z,86.42
2022-12-08T21:32:40.847Z,86.24
2022-12-08T21:35:10.859Z,86.19
2022-12-08T21:37:39.314Z,86.15
2022-12-08T21:40:12.925Z,86.34
2022-12-08T21:42:47.306Z,86.34
2022-12-08T21:45:17.187Z,86.22
2022-12-08T21:47:46.812Z,86.41
2022-12-08T21:50:16.231Z,86.47
2022-12-08T21:52:48.606Z,86.45
2022-12-08T21:55:20.451Z,86.75
2022-12-08T21:57:49.227Z,86.86
2022-12-08T22:00:19.285Z,86.80
2022-12-08T22:02:47.829Z,86.91
2022-12-08T22:05:16.173Z,86.85
2022-12-08T22:07:44.623Z,86.74
2022-12-08T22:10:13.135Z,86.50
2022-12-08T22:12:42.915Z,86.62
2022-12-08T22:15:12.377Z,86.48
2022-12-08T22:17:42.258Z,85.77
2022-12-08T22:20:13.699Z,85.62
2022-12-08T22:22:42.267Z,86.07
2022-12-08T22:25:12.747Z,86.29
2022-12-08T22:27:42.763Z,86.80
2022-12-08T22:30:12.333Z,86.76
2022-12-08T22:32:41.883Z,86.61
2022-12-08T22:35:11.345Z,86.99
2022-12-08T22:37:39.599Z,87.46
2022-12-08T22:40:09.278Z,87.62
2022-12-08T22:42:37.999Z,87.64
2022-12-08T22:45:09.498Z,87.69
2022-12-08T22:47:37.872Z,88.04
2022-12-08T22:50:08.069Z,88.19
2022-12-08T22:52:36.630Z,88.12
2022-12-08T22:55:05.809Z,88.01
2022-12-08T22:57:34.101Z,88.18
2022-12-08T23:00:03.528Z,88.42
2022-12-08T23:02:34.806Z,88.80
2022-12-08T23:05:03.370Z,89.12
2022-12-08T23:07:32.499Z,89.49
2022-12-08T23:10:00.894Z,89.40
2022-12-08T23:12:29.691Z,89.28
2022-12-08T23:14:57.931Z,89.12
2022-12-08T23:17:26.636Z,88.91
2022-12-08T23:19:56.359Z,88.28
2022-12-08T23:22:24.621Z,87.90
2022-12-08T23:24:53.098Z,87.62
2022-12-08T23:27:21.512Z,87.71
2022-12-08T23:29:49.855Z,87.89
2022-12-08T23:32:18.155Z,87.86
2022-12-08T23:34:47.082Z,87.80
2022-12-08T23:37:16.995Z,88.43
2022-12-08T23:39:45.532Z,88.62
2022-12-08T23:42:13.721Z,88.67
2022-12-08T23:44:42.427Z,88.60
2022-12-08T23:47:10.943Z,88.68
2022-12-08T23:49:39.435Z,88.47
2022-12-08T23:52:07.727Z,88.39
2022-12-08T23:54:37.379Z,88.36
2022-12-08T23:57:06.141Z,88.25
2022-12-08T23:59:34.885Z,88.15
